createdAt,value
2023-05-08T00:01:26.899Z,95.06
2023-05-08T00:03:55.675Z,94.62
2023-05-08T00:06:24.135Z,94.37
2023-05-08T00:08:54.073Z,94.44
2023-05-08T00:11:22.671Z,94.25
2023-05-08T00:13:51.237Z,94.05
2023-05-08T00:16:19.885Z,93.87
2023-05-08T00:18:48.566Z,93.70
2023-05-08T00:21:17.204Z,93.17
2023-05-08T00:23:45.541Z,92.41
2023-05-08T00:26:15.245Z,92.04
2023-05-08T00:28:43.736Z,91.42
2023-05-08T00:31:12.462Z,91.10
2023-05-08T00:33:41.292Z,91.01
2023-05-08T00:36:10.007Z,90.46
2023-05-08T00:38:38.758Z,90.57
2023-05-08T00:41:07.137Z,90.42
2023-05-08T00:43:37.745Z,90.03
2023-05-08T00:46:06.505Z,90.02
2023-05-08T00:48:36.911Z,89.93
2023-05-08T00:51:07.923Z,89.72
2023-05-08T00:53:39.991Z,89.50
2023-05-08T00:56:12.292Z,89.30
2023-05-08T00:58:44.031Z,89.01
2023-05-08T01:01:12.879Z,88.79
2023-05-08T01:03:42.382Z,88.51
2023-05-08T01:06:11.241Z,88.80
2023-05-08T01:08:40.050Z,89.35
2023-05-08T01:11:17.209Z,89.92
2023-05-08T01:14:08.725Z,89.78
2023-05-08T01:16:43.496Z,90.54
2023-05-08T01:19:29.037Z,91.00
2023-05-08T01:22:07.563Z,91.05
2023-05-08T01:25:10.305Z,92.17
2023-05-08T01:28:02.384Z,92.96
2023-05-08T01:31:07.026Z,92.98
2023-05-08T01:33:43.076Z,93.03
2023-05-08T01:36:22.104Z,93.06
2023-05-08T01:38:58.045Z,93.25
2023-05-08T01:41:29.797Z,93.46
2023-05-08T01:44:12.429Z,93.70
2023-05-08T01:46:40.850Z,93.05
2023-05-08T01:49:13.736Z,92.82
2023-05-08T01:51:58.420Z,92.48
2023-05-08T01:54:32.844Z,92.04
2023-05-08T01:57:03.295Z,91.48
2023-05-08T01:59:35.422Z,90.87
2023-05-08T02:02:05.172Z,90.81
2023-05-08T02:04:36.483Z,90.46
2023-05-08T02:07:07.032Z,90.76
2023-05-08T02:09:36.513Z,90.44
2023-05-08T02:12:08.350Z,90.76
2023-05-08T02:14:39.400Z,90.90
2023-05-08T02:17:10.965Z,90.69
2023-05-08T02:19:42.674Z,90.78
2023-05-08T02:22:11.663Z,90.59
2023-05-08T02:24:41.221Z,90.89
2023-05-08T02:27:10.756Z,90.92
2023-05-08T02:29:43.087Z,91.09
2023-05-08T02:32:12.291Z,91.60
2023-05-08T02:34:51.116Z,92.13
2023-05-08T02:37:29.000Z,92.23
2023-05-08T02:39:59.576Z,91.97
2023-05-08T02:42:28.365Z,91.80
2023-05-08T02:44:56.922Z,91.59
2023-05-08T02:47:29.212Z,91.58
2023-05-08T02:50:06.075Z,92.36
2023-05-08T02:52:42.185Z,92.35
2023-05-08T02:55:21.255Z,92.20
2023-05-08T02:57:58.042Z,92.42
2023-05-08T03:00:32.633Z,92.50
2023-05-08T03:03:06.526Z,92.56
2023-05-08T03:05:42.840Z,92.07
2023-05-08T03:08:17.223Z,91.58
2023-05-08T03:10:48.549Z,91.41
2023-05-08T03:13:27.409Z,91.14
2023-05-08T03:15:58.450Z,91.05
2023-05-08T03:18:32.380Z,91.05
2023-05-08T03:21:04.551Z,91.10
2023-05-08T03:23:36.465Z,90.52
2023-05-08T03:26:06.075Z,90.62
2023-05-08T03:28:37.003Z,90.69
2023-05-08T03:31:16.987Z,90.82
2023-05-08T03:33:46.468Z,90.88
2023-05-08T03:36:19.944Z,90.81
2023-05-08T03:38:48.492Z,90.89
2023-05-08T03:41:17.205Z,91.11
2023-05-08T03:43:53.334Z,91.55
2023-05-08T03:46:22.793Z,92.06
2023-05-08T03:48:53.273Z,92.11
2023-05-08T03:51:26.159Z,92.31
2023-05-08T03:53:54.823Z,92.80
2023-05-08T03:56:26.128Z,92.96
2023-05-08T03:59:02.274Z,92.93
2023-05-08T04:01:40.159Z,93.05
2023-05-08T04:04:15.822Z,92.86
2023-05-08T04:06:52.026Z,93.07
2023-05-08T04:09:26.622Z,92.83
2023-05-08T04:12:07.730Z,92.78
2023-05-08T04:14:42.840Z,92.74
2023-05-08T04:17:17.475Z,92.86
2023-05-08T04:19:48.635Z,92.22
2023-05-08T04:22:21.574Z,92.01
2023-05-08T04:24:52.949Z,91.91
2023-05-08T04:27:22.488Z,92.51
2023-05-08T04:29:51.279Z,92.89
2023-05-08T04:32:20.325Z,92.91
2023-05-08T04:34:49.846Z,93.38
2023-05-08T04:37:32.029Z,93.06
2023-05-08T04:40:03.842Z,93.17
2023-05-08T04:42:37.228Z,92.83
2023-05-08T04:45:06.709Z,92.69
2023-05-08T04:47:37.843Z,92.04
2023-05-08T04:50:08.525Z,91.86
2023-05-08T04:52:38.207Z,91.47
2023-05-08T04:55:08.016Z,91.00
2023-05-08T04:57:36.414Z,91.01
2023-05-08T05:00:06.354Z,90.68
2023-05-08T05:02:34.684Z,90.80
2023-05-08T05:05:02.983Z,90.84
2023-05-08T05:07:31.335Z,90.65
2023-05-08T05:10:01.360Z,90.25
2023-05-08T05:12:29.683Z,89.85
2023-05-08T05:14:58.279Z,89.11
2023-05-08T05:17:26.475Z,88.99
2023-05-08T05:19:54.809Z,88.72
2023-05-08T05:22:22.990Z,88.61
2023-05-08T05:24:52.359Z,88.27
2023-05-08T05:27:22.097Z,88.10
2023-05-08T05:29:57.858Z,87.99
2023-05-08T05:32:26.248Z,87.76
2023-05-08T05:34:54.958Z,87.58
2023-05-08T05:37:23.290Z,87.53
2023-05-08T05:39:54.883Z,87.42
2023-05-08T05:42:27.424Z,87.36
2023-05-08T05:44:56.857Z,86.93
2023-05-08T05:47:25.396Z,86.89
2023-05-08T05:49:53.572Z,86.52
2023-05-08T05:52:22.054Z,86.51
2023-05-08T05:54:51.420Z,86.22
2023-05-08T05:57:22.903Z,86.10
2023-05-08T05:59:54.749Z,86.02
2023-05-08T06:02:23.624Z,85.95
2023-05-08T06:04:53.406Z,85.48
2023-05-08T06:07:22.464Z,85.35
2023-05-08T06:09:51.358Z,85.29
2023-05-08T06:12:19.580Z,85.34
2023-05-08T06:14:48.009Z,85.39
2023-05-08T06:17:17.620Z,85.41
2023-05-08T06:19:45.976Z,85.22
2023-05-08T06:22:17.100Z,84.77
2023-05-08T06:24:45.406Z,84.54
2023-05-08T06:27:14.081Z,84.36
2023-05-08T06:29:42.544Z,83.90
2023-05-08T06:32:10.642Z,84.05
2023-05-08T06:34:40.699Z,83.72
2023-05-08T06:37:08.924Z,83.30
2023-05-08T06:39:37.043Z,83.04
2023-05-08T06:42:08.181Z,82.93
2023-05-08T06:44:37.065Z,82.35
2023-05-08T06:47:08.489Z,82.06
2023-05-08T06:49:37.754Z,81.41
2023-05-08T06:52:07.400Z,81.13
2023-05-08T06:54:35.530Z,80.63
2023-05-08T06:57:04.085Z,80.46
2023-05-08T06:59:32.741Z,80.97
2023-05-08T07:02:01.138Z,81.25
2023-05-08T07:04:32.003Z,80.76
2023-05-08T07:07:00.628Z,80.64
2023-05-08T07:09:32.851Z,80.20
2023-05-08T07:12:01.001Z,80.11
2023-05-08T07:14:30.288Z,80.39
2023-05-08T07:16:58.902Z,80.23
2023-05-08T07:19:27.269Z,80.13
2023-05-08T07:21:55.529Z,79.75
2023-05-08T07:24:24.952Z,80.25
2023-05-08T07:26:55.793Z,79.38
2023-05-08T07:29:24.016Z,79.42
2023-05-08T07:31:52.427Z,79.18
2023-05-08T07:34:20.648Z,79.14
2023-05-08T07:36:51.234Z,78.58
2023-05-08T07:39:19.647Z,78.52
2023-05-08T07:41:49.892Z,78.17
2023-05-08T07:44:19.995Z,78.06
2023-05-08T07:46:48.755Z,77.76
2023-05-08T07:49:17.270Z,78.67
2023-05-08T07:51:45.658Z,80.23
2023-05-08T07:54:14.188Z,81.21
2023-05-08T07:56:42.543Z,80.13
2023-05-08T07:59:14.760Z,80.59
2023-05-08T08:01:47.497Z,81.13
2023-05-08T08:04:15.807Z,79.83
2023-05-08T08:06:44.372Z,78.24
2023-05-08T08:09:12.815Z,76.54
2023-05-08T08:11:41.533Z,74.34
2023-05-08T08:14:10.023Z,72.47
2023-05-08T08:16:38.436Z,69.79
2023-05-08T08:19:08.143Z,66.64
2023-05-08T08:21:36.407Z,64.75
2023-05-08T08:24:04.752Z,64.22
2023-05-08T08:26:33.100Z,64.06
2023-05-08T08:29:02.638Z,64.56
2023-05-08T08:31:33.259Z,66.71
2023-05-08T08:34:02.314Z,66.10
2023-05-08T08:36:33.811Z,65.50
2023-05-08T08:39:05.147Z,66.26
2023-05-08T08:41:34.232Z,66.46
2023-05-08T08:44:02.962Z,67.14
2023-05-08T08:46:36.743Z,67.13
2023-05-08T08:49:05.867Z,68.39
2023-05-08T08:51:44.462Z,68.49
2023-05-08T08:54:18.768Z,69.22
2023-05-08T08:56:50.234Z,69.78
2023-05-08T08:59:19.398Z,69.96
2023-05-08T09:01:52.843Z,70.18
2023-05-08T09:04:21.751Z,70.39
2023-05-08T09:06:52.320Z,71.30
2023-05-08T09:09:20.838Z,72.44
2023-05-08T09:11:49.575Z,73.11
2023-05-08T09:14:18.006Z,73.71
2023-05-08T09:16:46.834Z,74.24
2023-05-08T09:19:18.210Z,77.14
2023-05-08T09:21:47.013Z,80.48
2023-05-08T09:24:16.887Z,80.39
2023-05-08T09:26:45.524Z,81.25
2023-05-08T09:29:15.903Z,81.46
2023-05-08T09:31:46.081Z,82.53
2023-05-08T09:34:27.140Z,83.01
2023-05-08T09:36:58.719Z,81.47
2023-05-08T09:39:28.426Z,80.85
2023-05-08T09:42:00.988Z,83.72
2023-05-08T09:44:29.594Z,83.12
2023-05-08T09:47:12.281Z,82.25
2023-05-08T09:49:41.233Z,81.52
2023-05-08T09:52:09.643Z,80.89
2023-05-08T09:54:39.439Z,80.44
2023-05-08T09:57:14.011Z,80.74
2023-05-08T09:59:42.282Z,80.10
2023-05-08T10:02:16.400Z,79.70
2023-05-08T10:04:44.991Z,80.02
2023-05-08T10:07:13.253Z,81.09
2023-05-08T10:10:00.617Z,80.86
2023-05-08T10:12:29.676Z,79.90
2023-05-08T10:15:01.441Z,79.42
2023-05-08T10:17:38.190Z,78.92
2023-05-08T10:20:11.375Z,79.80
2023-05-08T10:22:44.704Z,79.97
2023-05-08T10:25:18.253Z,79.72
2023-05-08T10:27:52.942Z,79.14
2023-05-08T10:30:26.940Z,79.08
2023-05-08T10:32:55.846Z,78.95
2023-05-08T10:35:25.138Z,79.07
2023-05-08T10:37:54.749Z,78.27
2023-05-08T10:40:25.174Z,77.59
2023-05-08T10:42:53.649Z,77.13
2023-05-08T10:45:22.237Z,77.43
2023-05-08T10:48:03.105Z,76.46
2023-05-08T10:50:49.949Z,74.27
2023-05-08T10:53:27.244Z,73.11
2023-05-08T10:55:57.267Z,72.26
2023-05-08T10:58:33.198Z,72.78
2023-05-08T11:01:17.985Z,72.55
2023-05-08T11:03:49.056Z,73.17
2023-05-08T11:06:17.968Z,72.52
2023-05-08T11:08:52.237Z,72.74
2023-05-08T11:11:31.894Z,72.76
2023-05-08T11:14:12.154Z,71.07
2023-05-08T11:17:09.041Z,70.35
2023-05-08T11:19:39.023Z,70.15
2023-05-08T11:22:15.534Z,69.90
2023-05-08T11:24:51.617Z,67.83
2023-05-08T11:27:42.853Z,67.37
2023-05-08T11:30:38.729Z,68.47
2023-05-08T11:33:34.012Z,68.57
2023-05-08T11:36:15.101Z,67.09
2023-05-08T11:38:44.910Z,66.07
2023-05-08T11:41:23.477Z,64.57
2023-05-08T11:44:21.520Z,63.12
2023-05-08T11:46:53.993Z,63.45
2023-05-08T11:49:28.125Z,62.63
2023-05-08T11:52:00.857Z,59.94
2023-05-08T11:54:32.143Z,61.09
2023-05-08T11:57:02.071Z,61.29
2023-05-08T11:59:36.892Z,61.11
2023-05-08T12:02:08.944Z,61.89
2023-05-08T12:04:48.255Z,61.99
2023-05-08T12:07:17.450Z,62.14
2023-05-08T12:09:47.949Z,61.97
2023-05-08T12:12:16.103Z,61.00
2023-05-08T12:14:50.665Z,62.26
2023-05-08T12:17:20.177Z,62.42
2023-05-08T12:19:48.513Z,62.49
2023-05-08T12:22:16.829Z,62.16
2023-05-08T12:24:45.870Z,62.68
2023-05-08T12:27:15.074Z,62.74
2023-05-08T12:29:47.778Z,63.15
2023-05-08T12:32:19.169Z,62.90
2023-05-08T12:34:47.593Z,62.90
2023-05-08T12:37:26.383Z,61.59
2023-05-08T12:39:55.291Z,62.09
2023-05-08T12:42:23.833Z,61.11
2023-05-08T12:44:55.002Z,62.19
2023-05-08T12:47:23.579Z,62.75
2023-05-08T12:49:59.007Z,62.41
2023-05-08T12:52:29.688Z,62.84
2023-05-08T12:54:59.367Z,63.10
2023-05-08T12:57:33.677Z,63.06
2023-05-08T13:00:07.213Z,61.58
2023-05-08T13:02:47.402Z,61.52
2023-05-08T13:05:21.042Z,61.75
2023-05-08T13:07:49.770Z,62.48
2023-05-08T13:10:21.378Z,62.75
2023-05-08T13:12:51.559Z,62.78
2023-05-08T13:15:23.568Z,62.38
2023-05-08T13:17:51.866Z,61.76
2023-05-08T13:20:20.771Z,62.27
2023-05-08T13:22:49.740Z,62.63
2023-05-08T13:25:18.628Z,62.12
2023-05-08T13:27:47.650Z,62.40
2023-05-08T13:30:17.046Z,62.21
2023-05-08T13:32:48.454Z,62.89
2023-05-08T13:35:17.360Z,64.13
2023-05-08T13:37:46.386Z,64.71
2023-05-08T13:40:15.667Z,65.94
2023-05-08T13:42:43.910Z,65.38
2023-05-08T13:45:14.769Z,65.51
2023-05-08T13:47:43.944Z,65.82
2023-05-08T13:50:14.991Z,65.56
2023-05-08T13:52:43.952Z,65.88
2023-05-08T13:55:13.503Z,66.37
2023-05-08T13:57:42.818Z,66.76
2023-05-08T14:00:13.125Z,67.10
2023-05-08T14:02:42.438Z,67.32
2023-05-08T14:05:11.469Z,67.78
2023-05-08T14:07:41.481Z,68.88
2023-05-08T14:10:10.750Z,68.55
2023-05-08T14:12:40.385Z,68.39
2023-05-08T14:15:10.492Z,68.74
2023-05-08T14:17:39.495Z,69.38
2023-05-08T14:20:11.628Z,70.20
2023-05-08T14:22:43.526Z,70.48
2023-05-08T14:25:20.452Z,70.60
2023-05-08T14:27:48.927Z,70.23
2023-05-08T14:30:17.158Z,70.92
2023-05-08T14:32:45.445Z,71.22
2023-05-08T14:35:16.944Z,71.60
2023-05-08T14:37:46.781Z,71.82
2023-05-08T14:40:15.278Z,72.64
2023-05-08T14:42:43.543Z,72.57
2023-05-08T14:45:16.312Z,72.01
2023-05-08T14:47:45.411Z,72.74
2023-05-08T14:50:14.038Z,73.06
2023-05-08T14:52:42.527Z,73.43
2023-05-08T14:55:13.241Z,73.24
2023-05-08T14:57:43.087Z,73.56
2023-05-08T15:00:13.314Z,73.75
2023-05-08T15:02:42.047Z,74.43
2023-05-08T15:05:19.103Z,74.22
2023-05-08T15:07:50.194Z,74.16
2023-05-08T15:10:19.878Z,75.00
2023-05-08T15:12:48.136Z,75.50
2023-05-08T15:15:16.907Z,75.83
2023-05-08T15:17:46.063Z,75.66
2023-05-08T15:20:14.437Z,75.59
2023-05-08T15:22:42.857Z,77.08
2023-05-08T15:25:12.277Z,77.41
2023-05-08T15:27:42.870Z,77.43
2023-05-08T15:30:12.105Z,77.47
2023-05-08T15:32:40.703Z,77.14
2023-05-08T15:35:09.637Z,76.86
2023-05-08T15:37:39.097Z,76.56
2023-05-08T15:40:09.076Z,76.60
2023-05-08T15:42:39.447Z,76.43
2023-05-08T15:45:12.203Z,76.02
2023-05-08T15:47:41.245Z,75.91
2023-05-08T15:50:10.226Z,76.00
2023-05-08T15:52:39.268Z,75.57
2023-05-08T15:55:08.267Z,75.59
2023-05-08T15:57:36.485Z,75.09
2023-05-08T16:00:05.380Z,74.97
2023-05-08T16:02:35.214Z,74.77
2023-05-08T16:05:03.533Z,74.02
2023-05-08T16:07:35.124Z,74.22
2023-05-08T16:10:05.263Z,73.62
2023-05-08T16:12:34.379Z,73.44
2023-05-08T16:15:02.630Z,73.37
2023-05-08T16:17:31.010Z,73.37
2023-05-08T16:20:03.835Z,73.32
2023-05-08T16:22:34.940Z,73.70
2023-05-08T16:25:03.640Z,73.56
2023-05-08T16:27:34.747Z,73.77
2023-05-08T16:30:02.984Z,73.83
2023-05-08T16:32:31.207Z,74.07
2023-05-08T16:35:01.293Z,74.67
2023-05-08T16:37:29.741Z,74.73
2023-05-08T16:39:58.068Z,74.43
2023-05-08T16:42:26.709Z,74.83
2023-05-08T16:44:54.957Z,74.89
2023-05-08T16:47:23.271Z,74.76
2023-05-08T16:49:51.690Z,74.24
2023-05-08T16:52:22.949Z,73.99
2023-05-08T16:54:51.193Z,73.14
2023-05-08T16:57:20.200Z,72.21
2023-05-08T16:59:48.496Z,71.43
2023-05-08T17:02:19.190Z,70.33
2023-05-08T17:04:48.313Z,69.41
2023-05-08T17:07:17.140Z,68.75
2023-05-08T17:09:48.988Z,68.24
2023-05-08T17:12:17.320Z,67.79
2023-05-08T17:14:45.492Z,67.71
2023-05-08T17:17:13.841Z,67.18
2023-05-08T17:19:43.354Z,66.77
2023-05-08T17:22:11.582Z,66.23
2023-05-08T17:24:40.144Z,66.07
2023-05-08T17:27:10.515Z,66.17
2023-05-08T17:29:40.148Z,66.48
2023-05-08T17:32:11.391Z,66.72
2023-05-08T17:34:39.977Z,67.15
2023-05-08T17:37:08.188Z,67.48
2023-05-08T17:39:36.695Z,67.59
2023-05-08T17:42:05.348Z,67.53
2023-05-08T17:44:35.807Z,67.32
2023-05-08T17:47:04.234Z,67.40
2023-05-08T17:49:32.600Z,67.27
2023-05-08T17:52:00.927Z,67.80
2023-05-08T17:54:33.917Z,67.98
2023-05-08T17:57:05.341Z,68.34
2023-05-08T17:59:35.345Z,69.28
2023-05-08T18:02:03.689Z,69.35
2023-05-08T18:04:35.097Z,69.99
2023-05-08T18:07:04.284Z,70.27
2023-05-08T18:09:32.644Z,70.94
2023-05-08T18:12:02.722Z,71.05
2023-05-08T18:14:32.511Z,71.61
2023-05-08T18:17:02.458Z,71.91
2023-05-08T18:19:30.871Z,72.03
2023-05-08T18:21:59.586Z,72.22
2023-05-08T18:24:27.815Z,73.14
2023-05-08T18:26:56.144Z,73.36
2023-05-08T18:29:25.762Z,74.00
2023-05-08T18:32:11.464Z,74.23
2023-05-08T18:34:41.351Z,74.39
2023-05-08T18:37:10.171Z,74.72
2023-05-08T18:39:38.594Z,74.88
2023-05-08T18:42:06.905Z,75.51
2023-05-08T18:44:35.206Z,76.25
2023-05-08T18:47:05.245Z,76.89
2023-05-08T18:49:33.742Z,76.98
2023-05-08T18:52:03.702Z,77.29
2023-05-08T18:54:35.055Z,78.14
2023-05-08T18:57:03.362Z,78.38
2023-05-08T18:59:34.606Z,78.97
2023-05-08T19:02:03.020Z,79.28
2023-05-08T19:04:31.678Z,79.83
2023-05-08T19:07:01.078Z,80.02
2023-05-08T19:09:31.423Z,80.48
2023-05-08T19:11:59.660Z,81.33
2023-05-08T19:14:27.910Z,80.93
2023-05-08T19:16:58.483Z,81.35
2023-05-08T19:19:27.621Z,81.77
2023-05-08T19:21:55.881Z,82.27
2023-05-08T19:24:26.889Z,82.92
2023-05-08T19:26:56.668Z,83.75
2023-05-08T19:29:24.929Z,83.58
2023-05-08T19:31:53.431Z,84.69
2023-05-08T19:34:21.969Z,85.50
2023-05-08T19:36:50.096Z,85.64
2023-05-08T19:39:19.481Z,86.79
2023-05-08T19:41:48.094Z,87.73
2023-05-08T19:44:17.996Z,87.94
2023-05-08T19:46:46.244Z,88.31
2023-05-08T19:49:17.381Z,89.19
2023-05-08T19:51:45.755Z,89.57
2023-05-08T19:54:14.191Z,89.22
2023-05-08T19:56:54.410Z,89.44
2023-05-08T19:59:24.657Z,89.61
2023-05-08T20:01:53.873Z,90.04
2023-05-08T20:04:22.435Z,90.33
2023-05-08T20:06:50.631Z,90.82
2023-05-08T20:09:18.915Z,91.35
2023-05-08T20:11:48.114Z,91.23
2023-05-08T20:14:17.118Z,91.26
2023-05-08T20:16:47.177Z,91.43
2023-05-08T20:19:15.628Z,91.84
2023-05-08T20:21:44.342Z,92.49
2023-05-08T20:24:12.695Z,92.79
2023-05-08T20:26:41.516Z,93.56
2023-05-08T20:29:09.937Z,94.15
2023-05-08T20:31:38.290Z,94.57
2023-05-08T20:34:07.897Z,94.85
2023-05-08T20:36:36.156Z,94.65
2023-05-08T20:39:04.842Z,94.65
2023-05-08T20:41:32.942Z,94.55
2023-05-08T20:44:01.167Z,95.21
2023-05-08T20:46:29.668Z,95.30
2023-05-08T20:48:59.612Z,95.86
2023-05-08T20:51:29.558Z,96.79
2023-05-08T20:53:57.924Z,97.41
2023-05-08T20:56:26.021Z,98.10
2023-05-08T20:58:54.382Z,97.77
2023-05-08T21:01:22.714Z,98.43
2023-05-08T21:03:50.950Z,98.23
2023-05-08T21:06:19.408Z,98.86
2023-05-08T21:08:50.273Z,99.20
2023-05-08T21:11:18.503Z,99.51
2023-05-08T21:13:48.613Z,99.60
2023-05-08T21:16:17.436Z,99.18
2023-05-08T21:18:45.994Z,100.00
2023-05-08T21:21:18.323Z,100.00
2023-05-08T21:23:47.022Z,100.00
2023-05-08T21:26:20.202Z,100.00
2023-05-08T21:28:52.520Z,100.00
2023-05-08T21:31:21.628Z,100.00
2023-05-08T21:33:49.939Z,100.00
2023-05-08T21:36:18.091Z,100.00
2023-05-08T21:38:46.452Z,100.00
2023-05-08T21:41:16.338Z,100.00
2023-05-08T21:43:44.843Z,100.00
2023-05-08T21:46:13.146Z,100.00
2023-05-08T21:48:41.619Z,100.00
2023-05-08T21:51:09.912Z,100.00
2023-05-08T21:53:38.138Z,100.00
2023-05-08T21:56:07.389Z,100.00
2023-05-08T21:58:37.461Z,100.00
2023-05-08T22:01:06.182Z,100.00
2023-05-08T22:03:38.295Z,100.00
2023-05-08T22:06:07.573Z,100.00
2023-05-08T22:08:37.675Z,100.00
2023-05-08T22:11:06.099Z,100.00
2023-05-08T22:13:37.356Z,100.00
2023-05-08T22:16:08.457Z,100.00
2023-05-08T22:18:37.058Z,100.00
2023-05-08T22:21:05.483Z,100.00
2023-05-08T22:23:35.016Z,100.00
2023-05-08T22:26:03.697Z,100.00
2023-05-08T22:28:34.838Z,100.00
2023-05-08T22:31:02.990Z,100.00
2023-05-08T22:33:35.880Z,100.00
2023-05-08T22:36:04.205Z,100.00
2023-05-08T22:38:32.369Z,100.00
2023-05-08T22:41:01.326Z,100.00
2023-05-08T22:43:29.769Z,100.00
2023-05-08T22:45:58.677Z,100.00
2023-05-08T22:48:29.982Z,100.00
2023-05-08T22:51:01.535Z,100.00
2023-05-08T22:53:29.672Z,100.00
2023-05-08T22:55:58.063Z,100.00
2023-05-08T22:58:27.394Z,100.00
2023-05-08T23:00:56.025Z,100.00
2023-05-08T23:03:24.846Z,100.00
2023-05-08T23:05:53.224Z,100.00
2023-05-08T23:08:23.123Z,100.00
2023-05-08T23:10:51.339Z,100.00
2023-05-08T23:13:19.664Z,100.00
2023-05-08T23:15:47.961Z,100.00
2023-05-08T23:18:16.375Z,100.00
2023-05-08T23:20:44.973Z,100.00
2023-05-08T23:23:13.205Z,100.00
2023-05-08T23:25:42.858Z,100.00
2023-05-08T23:28:11.137Z,100.00
2023-05-08T23:30:39.224Z,100.00
2023-05-08T23:33:07.578Z,100.00
2023-05-08T23:35:36.139Z,100.00
2023-05-08T23:38:04.307Z,100.00
2023-05-08T23:40:32.576Z,100.00
2023-05-08T23:43:02.543Z,100.00
2023-05-08T23:45:30.890Z,100.00
2023-05-08T23:48:00.264Z,100.00
2023-05-08T23:50:29.048Z,100.00
2023-05-08T23:52:57.651Z,100.00
2023-05-08T23:55:26.074Z,100.00
2023-05-08T23:57:54.706Z,100.00
